PWSweather.com
Personal Weather Stations
Station Observations
THRCKWTHR1
Aveley, EssexGB RM154EL

AveleyEssexGB RM154EL

Lat: 51.5000552, Lon: 0.2501753000000235

Elevation: 98.5

Station Type: Oregon Scientific WMR88

www.facebook.com/thurrockweather

High Low Average
Temperature 66.9°F19.4°C 46.8°F8.2°C 55.7°F13.2°C
Dew Point 59.5°F15.3°C 42.5°F5.8°C 50.4°F10.2°C
Winds 9.3 mph 15.0 kmh Calm Calm 2.0 mph W3.2 kmh W
Wind Gusts 15.6 mph25.1 kmh 1.9 mph3.1 kmh 5.0 mph8.0 kmh
Humidity 93% 71% 82%
Pressure 30.39 in1029.1 mb 30.27 in1025.1 mb -
Precipitation 0.00 in0.0 mm - -
Hour Temp Dew Point Humidity Winds Wind Gusts Pressure Precip Precip Rate Daily Precip Total
12:00 AM 53.1°F11.7°C 48.4°F9.1°C 84% Calm Calm 4.9 mph7.9 kmh 30.36 in1028.1 mb 0.00 in0.0 mm 0.00 in0.0 mm 0.00 in0.0 mm
12:05 AM 53.1°F11.7°C 48.7°F9.3°C 85% 1.4 mph NE2.3 kmh NE 2.5 mph4.0 kmh 30.36 in1028.1 mb 0.00 in0.0 mm 0.00 in0.0 mm 0.00 in0.0 mm
12:10 AM 53.1°F11.7°C 48.7°F9.3°C 85% 1.1 mph N1.8 kmh N 3.0 mph4.8 kmh 30.36 in1028.1 mb 0.00 in0.0 mm 0.00 in0.0 mm 0.00 in0.0 mm
12:15 AM 52.9°F11.6°C 48.5°F9.2°C 85% 2.5 mph WNW4.0 kmh WNW 3.0 mph4.8 kmh 30.36 in1028.1 mb 0.00 in0.0 mm 0.00 in0.0 mm 0.00 in0.0 mm
12:20 AM 52.9°F11.6°C 48.5°F9.2°C 85% Calm Calm 4.1 mph6.6 kmh 30.36 in1028.1 mb 0.00 in0.0 mm 0.00 in0.0 mm 0.00 in0.0 mm
12:25 AM 52.7°F11.5°C 48.3°F9.1°C 85% 1.9 mph SSW3.1 kmh SSW 4.1 mph6.6 kmh 30.36 in1028.1 mb 0.00 in0.0 mm 0.00 in0.0 mm 0.00 in0.0 mm
12:30 AM 52.7°F11.5°C 48.3°F9.1°C 85% Calm Calm 1.9 mph3.1 kmh 30.39 in1029.1 mb 0.00 in0.0 mm 0.00 in0.0 mm 0.00 in0.0 mm
12:35 AM 52.5°F11.4°C 48.1°F8.9°C 85% Calm Calm 1.9 mph3.1 kmh 30.39 in1029.1 mb 0.00 in0.0 mm 0.00 in0.0 mm 0.00 in0.0 mm
12:40 AM 52.3°F11.3°C 48.0°F8.9°C 85% Calm Calm 1.9 mph3.1 kmh 30.39 in1029.1 mb 0.00 in0.0 mm 0.00 in0.0 mm 0.00 in0.0 mm
12:45 AM 52.3°F11.3°C 48.0°F8.9°C 85% 3.3 mph WSW5.3 kmh WSW 3.3 mph5.3 kmh 30.39 in1029.1 mb 0.00 in0.0 mm 0.00 in0.0 mm 0.00 in0.0 mm
12:50 AM 52.3°F11.3°C 48.0°F8.9°C 85% 1.4 mph W2.3 kmh W 3.3 mph5.3 kmh 30.39 in1029.1 mb 0.00 in0.0 mm 0.00 in0.0 mm 0.00 in0.0 mm
12:55 AM 52.3°F11.3°C 48.3°F9.1°C 86% 3.0 mph W4.8 kmh W 3.0 mph4.8 kmh 30.39 in1029.1 mb 0.00 in0.0 mm 0.00 in0.0 mm 0.00 in0.0 mm
01:00 AM 52.3°F11.3°C 48.3°F9.1°C 86% 1.9 mph W3.1 kmh W 3.0 mph4.8 kmh 30.36 in1028.1 mb 0.00 in0.0 mm 0.00 in0.0 mm 0.00 in0.0 mm
01:05 AM 52.3°F11.3°C 48.3°F9.1°C 86% 1.1 mph SW1.8 kmh SW 5.5 mph8.9 kmh 30.36 in1028.1 mb 0.00 in0.0 mm 0.00 in0.0 mm 0.00 in0.0 mm
01:10 AM 52.5°F11.4°C 48.5°F9.2°C 86% 1.6 mph SW2.6 kmh SW 5.5 mph8.9 kmh 30.36 in1028.1 mb 0.00 in0.0 mm 0.00 in0.0 mm 0.00 in0.0 mm
01:15 AM 52.3°F11.3°C 48.3°F9.1°C 86% 3.0 mph WSW4.8 kmh WSW 4.6 mph7.4 kmh 30.36 in1028.1 mb 0.00 in0.0 mm 0.00 in0.0 mm 0.00 in0.0 mm
01:20 AM 52.3°F11.3°C 48.3°F9.1°C 86% Calm Calm 3.0 mph4.8 kmh 30.36 in1028.1 mb 0.00 in0.0 mm 0.00 in0.0 mm 0.00 in0.0 mm
01:25 AM 52.3°F11.3°C 48.3°F9.1°C 86% Calm Calm 3.3 mph5.3 kmh 30.36 in1028.1 mb 0.00 in0.0 mm 0.00 in0.0 mm 0.00 in0.0 mm
01:30 AM 52.3°F11.3°C 48.3°F9.1°C 86% Calm Calm 3.3 mph5.3 kmh 30.36 in1028.1 mb 0.00 in0.0 mm 0.00 in0.0 mm 0.00 in0.0 mm
01:35 AM 52.2°F11.2°C 48.4°F9.1°C 87% 1.9 mph SW3.1 kmh SW 2.7 mph4.3 kmh 30.36 in1028.1 mb 0.00 in0.0 mm 0.00 in0.0 mm 0.00 in0.0 mm
01:40 AM 52.2°F11.2°C 48.4°F9.1°C 87% 1.1 mph SW1.8 kmh SW 2.7 mph4.3 kmh 30.36 in1028.1 mb 0.00 in0.0 mm 0.00 in0.0 mm 0.00 in0.0 mm
01:45 AM 52.2°F11.2°C 48.4°F9.1°C 87% Calm Calm 3.3 mph5.3 kmh 30.36 in1028.1 mb 0.00 in0.0 mm 0.00 in0.0 mm 0.00 in0.0 mm
01:50 AM 52.2°F11.2°C 48.4°F9.1°C 87% 1.9 mph W3.1 kmh W 3.3 mph5.3 kmh 30.36 in1028.1 mb 0.00 in0.0 mm 0.00 in0.0 mm 0.00 in0.0 mm
01:55 AM 52.2°F11.2°C 48.4°F9.1°C 87% 1.4 mph WNW2.3 kmh WNW 2.5 mph4.0 kmh 30.36 in1028.1 mb 0.00 in0.0 mm 0.00 in0.0 mm 0.00 in0.0 mm
02:00 AM 52.2°F11.2°C 48.4°F9.1°C 87% 2.7 mph W4.3 kmh W 4.6 mph7.4 kmh 30.36 in1028.1 mb 0.00 in0.0 mm 0.00 in0.0 mm 0.00 in0.0 mm
02:05 AM 52.2°F11.2°C 48.7°F9.3°C 88% 1.6 mph WNW2.6 kmh WNW 4.6 mph7.4 kmh 30.36 in1028.1 mb 0.00 in0.0 mm 0.00 in0.0 mm 0.00 in0.0 mm
02:10 AM 52.3°F11.3°C 48.9°F9.4°C 88% 1.6 mph WSW2.6 kmh WSW 3.5 mph5.6 kmh 30.36 in1028.1 mb 0.00 in0.0 mm 0.00 in0.0 mm 0.00 in0.0 mm
02:15 AM 52.3°F11.3°C 48.9°F9.4°C 88% 3.5 mph SE5.6 kmh SE 3.5 mph5.6 kmh 30.39 in1029.1 mb 0.00 in0.0 mm 0.00 in0.0 mm 0.00 in0.0 mm
02:20 AM 52.3°F11.3°C 48.9°F9.4°C 88% 3.0 mph WNW4.8 kmh WNW 4.1 mph6.6 kmh 30.39 in1029.1 mb 0.00 in0.0 mm 0.00 in0.0 mm 0.00 in0.0 mm
02:25 AM 52.3°F11.3°C 48.9°F9.4°C 88% 2.5 mph W4.0 kmh W 4.4 mph7.1 kmh 30.39 in1029.1 mb 0.00 in0.0 mm 0.00 in0.0 mm 0.00 in0.0 mm
02:30 AM 52.3°F11.3°C 48.9°F9.4°C 88% 3.5 mph N5.6 kmh N 4.4 mph7.1 kmh 30.36 in1028.1 mb 0.00 in0.0 mm 0.00 in0.0 mm 0.00 in0.0 mm
02:35 AM 52.3°F11.3°C 48.9°F9.4°C 88% 1.4 mph NNW2.3 kmh NNW 6.0 mph9.7 kmh 30.36 in1028.1 mb 0.00 in0.0 mm 0.00 in0.0 mm 0.00 in0.0 mm
02:40 AM 52.5°F11.4°C 49.1°F9.5°C 88% 1.9 mph NNW3.1 kmh NNW 6.0 mph9.7 kmh 30.36 in1028.1 mb 0.00 in0.0 mm 0.00 in0.0 mm 0.00 in0.0 mm
02:45 AM 52.5°F11.4°C 49.4°F9.7°C 89% 1.1 mph NNW1.8 kmh NNW 4.6 mph7.4 kmh 30.39 in1029.1 mb 0.00 in0.0 mm 0.00 in0.0 mm 0.00 in0.0 mm
02:50 AM 52.5°F11.4°C 49.4°F9.7°C 89% 3.0 mph NNW4.8 kmh NNW 4.6 mph7.4 kmh 30.39 in1029.1 mb 0.00 in0.0 mm 0.00 in0.0 mm 0.00 in0.0 mm
02:55 AM 52.5°F11.4°C 49.4°F9.7°C 89% 2.5 mph W4.0 kmh W 4.6 mph7.4 kmh 30.39 in1029.1 mb 0.00 in0.0 mm 0.00 in0.0 mm 0.00 in0.0 mm
03:00 AM 52.5°F11.4°C 49.4°F9.7°C 89% 1.1 mph WSW1.8 kmh WSW 4.1 mph6.6 kmh 30.36 in1028.1 mb 0.00 in0.0 mm 0.00 in0.0 mm 0.00 in0.0 mm
03:05 AM 52.5°F11.4°C 49.4°F9.7°C 89% 3.0 mph W4.8 kmh W 4.1 mph6.6 kmh 30.36 in1028.1 mb 0.00 in0.0 mm 0.00 in0.0 mm 0.00 in0.0 mm
03:10 AM 52.5°F11.4°C 49.4°F9.7°C 89% 2.7 mph NW4.3 kmh NW 4.4 mph7.1 kmh 30.36 in1028.1 mb 0.00 in0.0 mm 0.00 in0.0 mm 0.00 in0.0 mm
03:15 AM 52.5°F11.4°C 49.4°F9.7°C 89% 4.9 mph N7.9 kmh N 4.9 mph7.9 kmh 30.36 in1028.1 mb 0.00 in0.0 mm 0.00 in0.0 mm 0.00 in0.0 mm
03:20 AM 52.5°F11.4°C 49.4°F9.7°C 89% 4.1 mph WSW6.6 kmh WSW 4.9 mph7.9 kmh 30.36 in1028.1 mb 0.00 in0.0 mm 0.00 in0.0 mm 0.00 in0.0 mm
03:25 AM 52.5°F11.4°C 49.4°F9.7°C 89% 3.0 mph WSW4.8 kmh WSW 4.9 mph7.9 kmh 30.36 in1028.1 mb 0.00 in0.0 mm 0.00 in0.0 mm 0.00 in0.0 mm
03:30 AM 52.5°F11.4°C 49.4°F9.7°C 89% 1.1 mph WSW1.8 kmh WSW 3.0 mph4.8 kmh 30.36 in1028.1 mb 0.00 in0.0 mm 0.00 in0.0 mm 0.00 in0.0 mm
03:35 AM 52.3°F11.3°C 49.2°F9.6°C 89% Calm Calm 3.3 mph5.3 kmh 30.36 in1028.1 mb 0.00 in0.0 mm 0.00 in0.0 mm 0.00 in0.0 mm
03:40 AM 52.3°F11.3°C 49.2°F9.6°C 89% 1.6 mph WNW2.6 kmh WNW 3.3 mph5.3 kmh 30.36 in1028.1 mb 0.00 in0.0 mm 0.00 in0.0 mm 0.00 in0.0 mm
03:45 AM 52.3°F11.3°C 49.2°F9.6°C 89% Calm Calm 3.5 mph5.6 kmh 30.36 in1028.1 mb 0.00 in0.0 mm 0.00 in0.0 mm 0.00 in0.0 mm
03:50 AM 52.3°F11.3°C 49.2°F9.6°C 89% 3.0 mph NNW4.8 kmh NNW 3.5 mph5.6 kmh 30.36 in1028.1 mb 0.00 in0.0 mm 0.00 in0.0 mm 0.00 in0.0 mm
03:55 AM 52.3°F11.3°C 49.2°F9.6°C 89% Calm Calm 3.5 mph5.6 kmh 30.36 in1028.1 mb 0.00 in0.0 mm 0.00 in0.0 mm 0.00 in0.0 mm
04:00 AM 52.2°F11.2°C 49.3°F9.6°C 90% 3.0 mph NW4.8 kmh NW 3.5 mph5.6 kmh 30.36 in1028.1 mb 0.00 in0.0 mm 0.00 in0.0 mm 0.00 in0.0 mm
04:05 AM 52.2°F11.2°C 49.3°F9.6°C 90% Calm Calm 3.0 mph4.8 kmh 30.36 in1028.1 mb 0.00 in0.0 mm 0.00 in0.0 mm 0.00 in0.0 mm
04:10 AM 52.2°F11.2°C 49.3°F9.6°C 90% 4.4 mph WNW7.1 kmh WNW 6.0 mph9.7 kmh 30.36 in1028.1 mb 0.00 in0.0 mm 0.00 in0.0 mm 0.00 in0.0 mm
04:15 AM 52.2°F11.2°C 49.3°F9.6°C 90% 3.3 mph W5.3 kmh W 6.0 mph9.7 kmh 30.36 in1028.1 mb 0.00 in0.0 mm 0.00 in0.0 mm 0.00 in0.0 mm
04:20 AM 52.2°F11.2°C 49.3°F9.6°C 90% 3.0 mph W4.8 kmh W 4.4 mph7.1 kmh 30.36 in1028.1 mb 0.00 in0.0 mm 0.00 in0.0 mm 0.00 in0.0 mm
04:25 AM 52.2°F11.2°C 49.3°F9.6°C 90% 3.0 mph W4.8 kmh W 4.1 mph6.6 kmh 30.36 in1028.1 mb 0.00 in0.0 mm 0.00 in0.0 mm 0.00 in0.0 mm
04:30 AM 52.3°F11.3°C 49.5°F9.7°C 90% Calm Calm 6.5 mph10.5 kmh 30.36 in1028.1 mb 0.00 in0.0 mm 0.00 in0.0 mm 0.00 in0.0 mm
04:35 AM 52.3°F11.3°C 49.8°F9.9°C 91% 2.7 mph SW4.3 kmh SW 6.5 mph10.5 kmh 30.36 in1028.1 mb 0.00 in0.0 mm 0.00 in0.0 mm 0.00 in0.0 mm
04:40 AM 52.5°F11.4°C 50.0°F10.0°C 91% 3.0 mph SSW4.8 kmh SSW 3.8 mph6.1 kmh 30.36 in1028.1 mb 0.00 in0.0 mm 0.00 in0.0 mm 0.00 in0.0 mm
04:45 AM 52.5°F11.4°C 50.0°F10.0°C 91% Calm Calm 3.8 mph6.1 kmh 30.36 in1028.1 mb 0.00 in0.0 mm 0.00 in0.0 mm 0.00 in0.0 mm
04:50 AM 52.5°F11.4°C 50.0°F10.0°C 91% 1.9 mph W3.1 kmh W 6.0 mph9.7 kmh 30.36 in1028.1 mb 0.00 in0.0 mm 0.00 in0.0 mm 0.00 in0.0 mm
04:55 AM 52.5°F11.4°C 50.0°F10.0°C 91% 1.1 mph W1.8 kmh W 6.0 mph9.7 kmh 30.36 in1028.1 mb 0.00 in0.0 mm 0.00 in0.0 mm 0.00 in0.0 mm
05:00 AM 52.5°F11.4°C 50.0°F10.0°C 91% 1.9 mph WNW3.1 kmh WNW 3.3 mph5.3 kmh 30.36 in1028.1 mb 0.00 in0.0 mm 0.00 in0.0 mm 0.00 in0.0 mm
05:05 AM 52.5°F11.4°C 50.0°F10.0°C 91% 1.6 mph WNW2.6 kmh WNW 3.3 mph5.3 kmh 30.36 in1028.1 mb 0.00 in0.0 mm 0.00 in0.0 mm 0.00 in0.0 mm
05:10 AM 52.5°F11.4°C 50.0°F10.0°C 91% 3.0 mph WSW4.8 kmh WSW 3.3 mph5.3 kmh 30.36 in1028.1 mb 0.00 in0.0 mm 0.00 in0.0 mm 0.00 in0.0 mm
05:15 AM 52.5°F11.4°C 50.0°F10.0°C 91% 1.6 mph SW2.6 kmh SW 3.0 mph4.8 kmh 30.39 in1029.1 mb 0.00 in0.0 mm 0.00 in0.0 mm 0.00 in0.0 mm
05:20 AM 52.5°F11.4°C 50.0°F10.0°C 91% 3.3 mph WSW5.3 kmh WSW 5.2 mph8.4 kmh 30.39 in1029.1 mb 0.00 in0.0 mm 0.00 in0.0 mm 0.00 in0.0 mm
05:25 AM 52.7°F11.5°C 50.1°F10.1°C 91% 2.7 mph WNW4.3 kmh WNW 5.2 mph8.4 kmh 30.39 in1029.1 mb 0.00 in0.0 mm 0.00 in0.0 mm 0.00 in0.0 mm
05:30 AM 52.5°F11.4°C 50.0°F10.0°C 91% Calm Calm 3.3 mph5.3 kmh 30.36 in1028.1 mb 0.00 in0.0 mm 0.00 in0.0 mm 0.00 in0.0 mm
05:35 AM 52.5°F11.4°C 50.0°F10.0°C 91% 2.5 mph WSW4.0 kmh WSW 4.1 mph6.6 kmh 30.36 in1028.1 mb 0.00 in0.0 mm 0.00 in0.0 mm 0.00 in0.0 mm
05:40 AM 52.3°F11.3°C 49.8°F9.9°C 91% Calm Calm 4.1 mph6.6 kmh 30.36 in1028.1 mb 0.00 in0.0 mm 0.00 in0.0 mm 0.00 in0.0 mm
05:45 AM 52.3°F11.3°C 49.8°F9.9°C 91% Calm Calm 3.0 mph4.8 kmh 30.36 in1028.1 mb 0.00 in0.0 mm 0.00 in0.0 mm 0.00 in0.0 mm
05:50 AM 52.2°F11.2°C 49.6°F9.8°C 91% Calm Calm 3.3 mph5.3 kmh 30.36 in1028.1 mb 0.00 in0.0 mm 0.00 in0.0 mm 0.00 in0.0 mm
05:55 AM 51.8°F11.0°C 49.3°F9.6°C 91% Calm Calm 3.5 mph5.6 kmh 30.36 in1028.1 mb 0.00 in0.0 mm 0.00 in0.0 mm 0.00 in0.0 mm
06:00 AM 51.6°F10.9°C 49.1°F9.5°C 91% Calm Calm 3.5 mph5.6 kmh 30.36 in1028.1 mb 0.00 in0.0 mm 0.00 in0.0 mm 0.00 in0.0 mm
06:05 AM 51.6°F10.9°C 49.1°F9.5°C 91% 3.0 mph WSW4.8 kmh WSW 3.0 mph4.8 kmh 30.36 in1028.1 mb 0.00 in0.0 mm 0.00 in0.0 mm 0.00 in0.0 mm
06:10 AM 51.4°F10.8°C 48.9°F9.4°C 91% Calm Calm 3.0 mph4.8 kmh 30.36 in1028.1 mb 0.00 in0.0 mm 0.00 in0.0 mm 0.00 in0.0 mm
06:15 AM 51.6°F10.9°C 49.1°F9.5°C 91% Calm Calm 3.0 mph4.8 kmh 30.36 in1028.1 mb 0.00 in0.0 mm 0.00 in0.0 mm 0.00 in0.0 mm
06:20 AM 51.6°F10.9°C 49.1°F9.5°C 91% Calm Calm 4.1 mph6.6 kmh 30.36 in1028.1 mb 0.00 in0.0 mm 0.00 in0.0 mm 0.00 in0.0 mm
06:25 AM 51.6°F10.9°C 49.4°F9.7°C 92% Calm Calm 4.1 mph6.6 kmh 30.36 in1028.1 mb 0.00 in0.0 mm 0.00 in0.0 mm 0.00 in0.0 mm
06:30 AM 51.6°F10.9°C 49.4°F9.7°C 92% 1.6 mph WSW2.6 kmh WSW 2.5 mph4.0 kmh 30.36 in1028.1 mb 0.00 in0.0 mm 0.00 in0.0 mm 0.00 in0.0 mm
06:35 AM 51.6°F10.9°C 49.4°F9.7°C 92% 1.4 mph NW2.3 kmh NW 1.9 mph3.1 kmh 30.36 in1028.1 mb 0.00 in0.0 mm 0.00 in0.0 mm 0.00 in0.0 mm
06:40 AM 51.8°F11.0°C 49.5°F9.7°C 92% 4.1 mph N6.6 kmh N 4.1 mph6.6 kmh 30.36 in1028.1 mb 0.00 in0.0 mm 0.00 in0.0 mm 0.00 in0.0 mm
06:45 AM 52.0°F11.1°C 49.7°F9.8°C 92% Calm Calm 4.1 mph6.6 kmh 30.39 in1029.1 mb 0.00 in0.0 mm 0.00 in0.0 mm 0.00 in0.0 mm
06:50 AM 52.2°F11.2°C 49.9°F9.9°C 92% Calm Calm 4.1 mph6.6 kmh 30.39 in1029.1 mb 0.00 in0.0 mm 0.00 in0.0 mm 0.00 in0.0 mm
06:55 AM 52.3°F11.3°C 50.1°F10.1°C 92% 1.4 mph W2.3 kmh W 4.4 mph7.1 kmh 30.39 in1029.1 mb 0.00 in0.0 mm 0.00 in0.0 mm 0.00 in0.0 mm
07:00 AM 52.5°F11.4°C 50.3°F10.2°C 92% 3.3 mph SW5.3 kmh SW 4.4 mph7.1 kmh 30.39 in1029.1 mb 0.00 in0.0 mm 0.00 in0.0 mm 0.00 in0.0 mm
07:05 AM 52.9°F11.6°C 50.9°F10.5°C 93% 1.1 mph SW1.8 kmh SW 5.2 mph8.4 kmh 30.39 in1029.1 mb 0.00 in0.0 mm 0.00 in0.0 mm 0.00 in0.0 mm
07:10 AM 52.9°F11.6°C 50.9°F10.5°C 93% Calm Calm 5.2 mph8.4 kmh 30.39 in1029.1 mb 0.00 in0.0 mm 0.00 in0.0 mm 0.00 in0.0 mm
07:15 AM 53.1°F11.7°C 50.8°F10.4°C 92% 1.6 mph NW2.6 kmh NW 4.4 mph7.1 kmh 30.39 in1029.1 mb 0.00 in0.0 mm 0.00 in0.0 mm 0.00 in0.0 mm
07:20 AM 53.1°F11.7°C 51.1°F10.6°C 93% Calm Calm 4.4 mph7.1 kmh 30.39 in1029.1 mb 0.00 in0.0 mm 0.00 in0.0 mm 0.00 in0.0 mm
07:25 AM 53.2°F11.8°C 51.0°F10.6°C 92% 3.5 mph NW5.6 kmh NW 3.8 mph6.1 kmh 30.39 in1029.1 mb 0.00 in0.0 mm 0.00 in0.0 mm 0.00 in0.0 mm
07:30 AM 53.2°F11.8°C 51.0°F10.6°C 92% 3.5 mph NW5.6 kmh NW 3.8 mph6.1 kmh 30.39 in1029.1 mb 0.00 in0.0 mm 0.00 in0.0 mm 0.00 in0.0 mm
07:35 AM 53.4°F11.9°C 51.2°F10.7°C 92% 3.0 mph W4.8 kmh W 3.8 mph6.1 kmh 30.39 in1029.1 mb 0.00 in0.0 mm 0.00 in0.0 mm 0.00 in0.0 mm
07:40 AM 53.6°F12.0°C 51.3°F10.7°C 92% Calm Calm 4.1 mph6.6 kmh 30.39 in1029.1 mb 0.00 in0.0 mm 0.00 in0.0 mm 0.00 in0.0 mm
07:45 AM 53.8°F12.1°C 51.5°F10.8°C 92% 1.6 mph W2.6 kmh W 4.1 mph6.6 kmh 30.39 in1029.1 mb 0.00 in0.0 mm 0.00 in0.0 mm 0.00 in0.0 mm
07:50 AM 54.0°F12.2°C 51.7°F10.9°C 92% 2.5 mph WSW4.0 kmh WSW 3.8 mph6.1 kmh 30.39 in1029.1 mb 0.00 in0.0 mm 0.00 in0.0 mm 0.00 in0.0 mm
07:55 AM 54.3°F12.4°C 52.0°F11.1°C 92% 3.0 mph SW4.8 kmh SW 3.0 mph4.8 kmh 30.39 in1029.1 mb 0.00 in0.0 mm 0.00 in0.0 mm 0.00 in0.0 mm
08:00 AM 54.5°F12.5°C 52.2°F11.2°C 92% 3.0 mph NW4.8 kmh NW 4.4 mph7.1 kmh 30.39 in1029.1 mb 0.00 in0.0 mm 0.00 in0.0 mm 0.00 in0.0 mm
08:05 AM 55.0°F12.8°C 52.8°F11.6°C 92% 3.3 mph NW5.3 kmh NW 4.6 mph7.4 kmh 30.39 in1029.1 mb 0.00 in0.0 mm 0.00 in0.0 mm 0.00 in0.0 mm
08:10 AM 55.4°F13.0°C 52.8°F11.6°C 91% 2.7 mph NW4.3 kmh NW 4.6 mph7.4 kmh 30.39 in1029.1 mb 0.00 in0.0 mm 0.00 in0.0 mm 0.00 in0.0 mm
08:15 AM 55.9°F13.3°C 53.6°F12.0°C 92% 3.8 mph NNW6.1 kmh NNW 4.9 mph7.9 kmh 30.39 in1029.1 mb 0.00 in0.0 mm 0.00 in0.0 mm 0.00 in0.0 mm
08:20 AM 56.3°F13.5°C 53.7°F12.1°C 91% 4.4 mph N7.1 kmh N 6.8 mph10.9 kmh 30.39 in1029.1 mb 0.00 in0.0 mm 0.00 in0.0 mm 0.00 in0.0 mm
08:25 AM 56.8°F13.8°C 54.2°F12.3°C 91% 3.3 mph NW5.3 kmh NW 6.8 mph10.9 kmh 30.39 in1029.1 mb 0.00 in0.0 mm 0.00 in0.0 mm 0.00 in0.0 mm
08:30 AM 57.6°F14.2°C 54.6°F12.6°C 90% 9.3 mph NW15.0 kmh NW 12.3 mph19.8 kmh 30.39 in1029.1 mb 0.00 in0.0 mm 0.00 in0.0 mm 0.00 in0.0 mm
08:35 AM 57.9°F14.4°C 55.0°F12.8°C 90% 4.1 mph NW6.6 kmh NW 12.3 mph19.8 kmh 30.39 in1029.1 mb 0.00 in0.0 mm 0.00 in0.0 mm 0.00 in0.0 mm
08:40 AM 58.3°F14.6°C 55.1°F12.8°C 89% 4.6 mph NW7.4 kmh NW 7.6 mph12.2 kmh 30.39 in1029.1 mb 0.00 in0.0 mm 0.00 in0.0 mm 0.00 in0.0 mm
08:45 AM 58.3°F14.6°C 54.7°F12.6°C 88% 5.2 mph NNW8.4 kmh NNW 8.7 mph14.0 kmh 30.39 in1029.1 mb 0.00 in0.0 mm 0.00 in0.0 mm 0.00 in0.0 mm
08:50 AM 58.8°F14.9°C 55.3°F12.9°C 88% 5.2 mph NNW8.4 kmh NNW 8.7 mph14.0 kmh 30.39 in1029.1 mb 0.00 in0.0 mm 0.00 in0.0 mm 0.00 in0.0 mm
08:55 AM 59.0°F15.0°C 55.4°F13.0°C 88% 4.9 mph NW7.9 kmh NW 7.9 mph12.7 kmh 30.39 in1029.1 mb 0.00 in0.0 mm 0.00 in0.0 mm 0.00 in0.0 mm
09:00 AM 59.0°F15.0°C 54.8°F12.7°C 86% 6.0 mph NW9.7 kmh NW 9.6 mph15.4 kmh 30.39 in1029.1 mb 0.00 in0.0 mm 0.00 in0.0 mm 0.00 in0.0 mm
09:05 AM 59.0°F15.0°C 54.8°F12.7°C 86% 7.9 mph NNW12.7 kmh NNW 15.6 mph25.1 kmh 30.39 in1029.1 mb 0.00 in0.0 mm 0.00 in0.0 mm 0.00 in0.0 mm
09:10 AM 59.4°F15.2°C 55.2°F12.9°C 86% 3.3 mph NNW5.3 kmh NNW 15.6 mph25.1 kmh 30.39 in1029.1 mb 0.00 in0.0 mm 0.00 in0.0 mm 0.00 in0.0 mm
09:15 AM 59.4°F15.2°C 54.8°F12.7°C 85% 3.8 mph NNW6.1 kmh NNW 9.6 mph15.4 kmh 30.39 in1029.1 mb 0.00 in0.0 mm 0.00 in0.0 mm 0.00 in0.0 mm
09:20 AM 59.7°F15.4°C 55.2°F12.9°C 85% 3.3 mph NNW5.3 kmh NNW 9.6 mph15.4 kmh 30.39 in1029.1 mb 0.00 in0.0 mm 0.00 in0.0 mm 0.00 in0.0 mm
09:25 AM 60.1°F15.6°C 55.9°F13.3°C 86% 3.8 mph NW6.1 kmh NW 7.9 mph12.7 kmh 30.39 in1029.1 mb 0.00 in0.0 mm 0.00 in0.0 mm 0.00 in0.0 mm
09:30 AM 60.6°F15.9°C 56.4°F13.6°C 86% 1.9 mph NW3.1 kmh NW 7.9 mph12.7 kmh 30.39 in1029.1 mb 0.00 in0.0 mm 0.00 in0.0 mm 0.00 in0.0 mm
09:35 AM 61.0°F16.1°C 56.4°F13.6°C 85% 6.0 mph NW9.7 kmh NW 6.5 mph10.5 kmh 30.39 in1029.1 mb 0.00 in0.0 mm 0.00 in0.0 mm 0.00 in0.0 mm
09:40 AM 61.0°F16.1°C 56.1°F13.4°C 84% 2.5 mph NNW4.0 kmh NNW 6.5 mph10.5 kmh 30.39 in1029.1 mb 0.00 in0.0 mm 0.00 in0.0 mm 0.00 in0.0 mm
09:45 AM 60.8°F16.0°C 55.6°F13.1°C 83% 6.5 mph NW10.5 kmh NW 6.5 mph10.5 kmh 30.39 in1029.1 mb 0.00 in0.0 mm 0.00 in0.0 mm 0.00 in0.0 mm
09:50 AM 60.6°F15.9°C 55.8°F13.2°C 84% 7.6 mph NW12.2 kmh NW 7.6 mph12.2 kmh 30.39 in1029.1 mb 0.00 in0.0 mm 0.00 in0.0 mm 0.00 in0.0 mm
09:55 AM 60.3°F15.7°C 55.1°F12.8°C 83% 3.0 mph NW4.8 kmh NW 9.0 mph14.5 kmh 30.39 in1029.1 mb 0.00 in0.0 mm 0.00 in0.0 mm 0.00 in0.0 mm
10:00 AM 60.3°F15.7°C 55.1°F12.8°C 83% 3.3 mph NW5.3 kmh NW 9.0 mph14.5 kmh 30.39 in1029.1 mb 0.00 in0.0 mm 0.00 in0.0 mm 0.00 in0.0 mm
10:05 AM 60.3°F15.7°C 55.1°F12.8°C 83% 1.6 mph NW2.6 kmh NW 6.0 mph9.7 kmh 30.39 in1029.1 mb 0.00 in0.0 mm 0.00 in0.0 mm 0.00 in0.0 mm
10:10 AM 60.1°F15.6°C 54.9°F12.7°C 83% 1.6 mph NW2.6 kmh NW 4.9 mph7.9 kmh 30.39 in1029.1 mb 0.00 in0.0 mm 0.00 in0.0 mm 0.00 in0.0 mm
10:15 AM 60.1°F15.6°C 54.9°F12.7°C 83% 1.9 mph W3.1 kmh W 4.9 mph7.9 kmh 30.39 in1029.1 mb 0.00 in0.0 mm 0.00 in0.0 mm 0.00 in0.0 mm
10:20 AM 59.9°F15.5°C 54.7°F12.6°C 83% 3.5 mph WNW5.6 kmh WNW 4.1 mph6.6 kmh 30.39 in1029.1 mb 0.00 in0.0 mm 0.00 in0.0 mm 0.00 in0.0 mm
10:25 AM 60.1°F15.6°C 54.9°F12.7°C 83% 3.3 mph W5.3 kmh W 6.5 mph10.5 kmh 30.39 in1029.1 mb 0.00 in0.0 mm 0.00 in0.0 mm 0.00 in0.0 mm
10:30 AM 60.1°F15.6°C 54.9°F12.7°C 83% 3.8 mph W6.1 kmh W 6.5 mph10.5 kmh 30.39 in1029.1 mb 0.00 in0.0 mm 0.00 in0.0 mm 0.00 in0.0 mm
10:35 AM 60.1°F15.6°C 54.9°F12.7°C 83% 3.8 mph NW6.1 kmh NW 4.9 mph7.9 kmh 30.39 in1029.1 mb 0.00 in0.0 mm 0.00 in0.0 mm 0.00 in0.0 mm
10:40 AM 60.1°F15.6°C 54.9°F12.7°C 83% 3.5 mph NW5.6 kmh NW 4.6 mph7.4 kmh 30.39 in1029.1 mb 0.00 in0.0 mm 0.00 in0.0 mm 0.00 in0.0 mm
10:45 AM 60.4°F15.8°C 55.3°F12.9°C 83% 4.4 mph NNW7.1 kmh NNW 4.6 mph7.4 kmh 30.39 in1029.1 mb 0.00 in0.0 mm 0.00 in0.0 mm 0.00 in0.0 mm
10:50 AM 60.6°F15.9°C 55.4°F13.0°C 83% 4.9 mph NNW7.9 kmh NNW 5.2 mph8.4 kmh 30.39 in1029.1 mb 0.00 in0.0 mm 0.00 in0.0 mm 0.00 in0.0 mm
10:55 AM 61.3°F16.3°C 56.1°F13.4°C 83% 3.3 mph NW5.3 kmh NW 6.5 mph10.5 kmh 30.39 in1029.1 mb 0.00 in0.0 mm 0.00 in0.0 mm 0.00 in0.0 mm
11:00 AM 61.9°F16.6°C 56.3°F13.5°C 82% 1.6 mph NW2.6 kmh NW 6.5 mph10.5 kmh 30.39 in1029.1 mb 0.00 in0.0 mm 0.00 in0.0 mm 0.00 in0.0 mm
11:05 AM 61.9°F16.6°C 56.3°F13.5°C 82% 6.0 mph NW9.7 kmh NW 7.4 mph11.9 kmh 30.39 in1029.1 mb 0.00 in0.0 mm 0.00 in0.0 mm 0.00 in0.0 mm
11:10 AM 62.2°F16.8°C 56.7°F13.7°C 82% 6.5 mph NW10.5 kmh NW 7.4 mph11.9 kmh 30.39 in1029.1 mb 0.00 in0.0 mm 0.00 in0.0 mm 0.00 in0.0 mm
11:15 AM 62.6°F17.0°C 56.7°F13.7°C 81% 1.4 mph NNW2.3 kmh NNW 7.4 mph11.9 kmh 30.39 in1029.1 mb 0.00 in0.0 mm 0.00 in0.0 mm 0.00 in0.0 mm
11:20 AM 63.1°F17.3°C 57.6°F14.2°C 82% 3.3 mph NW5.3 kmh NW 6.5 mph10.5 kmh 30.39 in1029.1 mb 0.00 in0.0 mm 0.00 in0.0 mm 0.00 in0.0 mm
11:25 AM 63.3°F17.4°C 57.0°F13.9°C 80% 6.0 mph NW9.7 kmh NW 6.0 mph9.7 kmh 30.39 in1029.1 mb 0.00 in0.0 mm 0.00 in0.0 mm 0.00 in0.0 mm
11:30 AM 63.5°F17.5°C 57.2°F14.0°C 80% 3.8 mph NW6.1 kmh NW 6.0 mph9.7 kmh 30.39 in1029.1 mb 0.00 in0.0 mm 0.00 in0.0 mm 0.00 in0.0 mm
11:35 AM 64.0°F17.8°C 58.1°F14.5°C 81% 1.6 mph W2.6 kmh W 3.8 mph6.1 kmh 30.39 in1029.1 mb 0.00 in0.0 mm 0.00 in0.0 mm 0.00 in0.0 mm
11:40 AM 64.2°F17.9°C 57.9°F14.4°C 80% 2.5 mph W4.0 kmh W 3.8 mph6.1 kmh 30.39 in1029.1 mb 0.00 in0.0 mm 0.00 in0.0 mm 0.00 in0.0 mm
11:45 AM 64.9°F18.3°C 58.6°F14.8°C 80% 1.1 mph WSW1.8 kmh WSW 3.3 mph5.3 kmh 30.39 in1029.1 mb 0.00 in0.0 mm 0.00 in0.0 mm 0.00 in0.0 mm
11:50 AM 65.5°F18.6°C 59.1°F15.1°C 80% 1.4 mph SW2.3 kmh SW 8.7 mph14.0 kmh 30.39 in1029.1 mb 0.00 in0.0 mm 0.00 in0.0 mm 0.00 in0.0 mm
11:55 AM 65.8°F18.8°C 59.1°F15.1°C 79% 1.9 mph WSW3.1 kmh WSW 8.7 mph14.0 kmh 30.39 in1029.1 mb 0.00 in0.0 mm 0.00 in0.0 mm 0.00 in0.0 mm
12:00 PM 66.0°F18.9°C 59.0°F15.0°C 78% 1.6 mph WSW2.6 kmh WSW 3.8 mph6.1 kmh 30.39 in1029.1 mb 0.00 in0.0 mm 0.00 in0.0 mm 0.00 in0.0 mm
12:05 PM 66.2°F19.0°C 59.1°F15.1°C 78% 3.5 mph SW5.6 kmh SW 3.5 mph5.6 kmh 30.39 in1029.1 mb 0.00 in0.0 mm 0.00 in0.0 mm 0.00 in0.0 mm
12:10 PM 66.2°F19.0°C 59.1°F15.1°C 78% 1.4 mph WSW2.3 kmh WSW 6.8 mph10.9 kmh 30.39 in1029.1 mb 0.00 in0.0 mm 0.00 in0.0 mm 0.00 in0.0 mm
12:15 PM 66.6°F19.2°C 59.5°F15.3°C 78% 3.0 mph W4.8 kmh W 6.8 mph10.9 kmh 30.39 in1029.1 mb 0.00 in0.0 mm 0.00 in0.0 mm 0.00 in0.0 mm
12:20 PM 66.9°F19.4°C 59.5°F15.3°C 77% 2.5 mph WSW4.0 kmh WSW 4.1 mph6.6 kmh 30.39 in1029.1 mb 0.00 in0.0 mm 0.00 in0.0 mm 0.00 in0.0 mm
12:25 PM 66.6°F19.2°C 58.4°F14.7°C 75% 4.9 mph WSW7.9 kmh WSW 4.9 mph7.9 kmh 30.39 in1029.1 mb 0.00 in0.0 mm 0.00 in0.0 mm 0.00 in0.0 mm
12:30 PM 66.4°F19.1°C 57.8°F14.3°C 74% 1.6 mph WNW2.6 kmh WNW 4.9 mph7.9 kmh 30.39 in1029.1 mb 0.00 in0.0 mm 0.00 in0.0 mm 0.00 in0.0 mm
12:35 PM 66.0°F18.9°C 57.1°F13.9°C 73% 1.1 mph W1.8 kmh W 4.9 mph7.9 kmh 30.39 in1029.1 mb 0.00 in0.0 mm 0.00 in0.0 mm 0.00 in0.0 mm
12:40 PM 65.7°F18.7°C 56.4°F13.6°C 72% 1.6 mph WNW2.6 kmh WNW 6.5 mph10.5 kmh 30.39 in1029.1 mb 0.00 in0.0 mm 0.00 in0.0 mm 0.00 in0.0 mm
12:45 PM 65.1°F18.4°C 56.2°F13.4°C 73% 1.9 mph NW3.1 kmh NW 6.5 mph10.5 kmh 30.39 in1029.1 mb 0.00 in0.0 mm 0.00 in0.0 mm 0.00 in0.0 mm
12:50 PM 64.8°F18.2°C 55.5°F13.1°C 72% 4.6 mph WNW7.4 kmh WNW 4.6 mph7.4 kmh 30.39 in1029.1 mb 0.00 in0.0 mm 0.00 in0.0 mm 0.00 in0.0 mm
12:55 PM 64.4°F18.0°C 55.2°F12.9°C 72% 1.4 mph SW2.3 kmh SW 4.6 mph7.4 kmh 30.39 in1029.1 mb 0.00 in0.0 mm 0.00 in0.0 mm 0.00 in0.0 mm
01:00 PM 64.2°F17.9°C 55.4°F13.0°C 73% 3.8 mph WSW6.1 kmh WSW 4.6 mph7.4 kmh 30.36 in1028.1 mb 0.00 in0.0 mm 0.00 in0.0 mm 0.00 in0.0 mm
01:05 PM 63.9°F17.7°C 55.0°F12.8°C 73% 1.9 mph WSW3.1 kmh WSW 5.2 mph8.4 kmh 30.36 in1028.1 mb 0.00 in0.0 mm 0.00 in0.0 mm 0.00 in0.0 mm
01:10 PM 63.9°F17.7°C 55.0°F12.8°C 73% 3.5 mph WSW5.6 kmh WSW 5.2 mph8.4 kmh 30.36 in1028.1 mb 0.00 in0.0 mm 0.00 in0.0 mm 0.00 in0.0 mm
01:15 PM 63.9°F17.7°C 55.0°F12.8°C 73% 1.1 mph WSW1.8 kmh WSW 4.6 mph7.4 kmh 30.36 in1028.1 mb 0.00 in0.0 mm 0.00 in0.0 mm 0.00 in0.0 mm
01:20 PM 63.7°F17.6°C 54.9°F12.7°C 73% 3.0 mph WNW4.8 kmh WNW 4.6 mph7.4 kmh 30.36 in1028.1 mb 0.00 in0.0 mm 0.00 in0.0 mm 0.00 in0.0 mm
01:25 PM 63.7°F17.6°C 54.9°F12.7°C 73% 3.0 mph NW4.8 kmh NW 4.1 mph6.6 kmh 30.36 in1028.1 mb 0.00 in0.0 mm 0.00 in0.0 mm 0.00 in0.0 mm
01:30 PM 63.7°F17.6°C 55.2°F12.9°C 74% 2.5 mph NW4.0 kmh NW 4.1 mph6.6 kmh 30.36 in1028.1 mb 0.00 in0.0 mm 0.00 in0.0 mm 0.00 in0.0 mm
01:35 PM 63.7°F17.6°C 55.2°F12.9°C 74% 2.7 mph N4.3 kmh N 4.1 mph6.6 kmh 30.36 in1028.1 mb 0.00 in0.0 mm 0.00 in0.0 mm 0.00 in0.0 mm
01:40 PM 63.9°F17.7°C 55.4°F13.0°C 74% 1.1 mph ESE1.8 kmh ESE 2.7 mph4.3 kmh 30.36 in1028.1 mb 0.00 in0.0 mm 0.00 in0.0 mm 0.00 in0.0 mm
01:45 PM 63.9°F17.7°C 55.4°F13.0°C 74% 1.6 mph W2.6 kmh W 4.1 mph6.6 kmh 30.36 in1028.1 mb 0.00 in0.0 mm 0.00 in0.0 mm 0.00 in0.0 mm
01:50 PM 63.9°F17.7°C 55.4°F13.0°C 74% 1.1 mph SW1.8 kmh SW 5.2 mph8.4 kmh 30.36 in1028.1 mb 0.00 in0.0 mm 0.00 in0.0 mm 0.00 in0.0 mm
01:55 PM 63.9°F17.7°C 55.4°F13.0°C 74% 1.9 mph SW3.1 kmh SW 5.2 mph8.4 kmh 30.36 in1028.1 mb 0.00 in0.0 mm 0.00 in0.0 mm 0.00 in0.0 mm
02:00 PM 63.9°F17.7°C 55.4°F13.0°C 74% 1.4 mph WSW2.3 kmh WSW 4.4 mph7.1 kmh 30.33 in1027.1 mb 0.00 in0.0 mm 0.00 in0.0 mm 0.00 in0.0 mm
02:05 PM 63.9°F17.7°C 55.0°F12.8°C 73% 4.9 mph WSW7.9 kmh WSW 4.9 mph7.9 kmh 30.33 in1027.1 mb 0.00 in0.0 mm 0.00 in0.0 mm 0.00 in0.0 mm
02:10 PM 63.9°F17.7°C 55.0°F12.8°C 73% Calm Calm 4.9 mph7.9 kmh 30.33 in1027.1 mb 0.00 in0.0 mm 0.00 in0.0 mm 0.00 in0.0 mm
02:15 PM 64.0°F17.8°C 55.2°F12.9°C 73% 1.9 mph SW3.1 kmh SW 4.4 mph7.1 kmh 30.33 in1027.1 mb 0.00 in0.0 mm 0.00 in0.0 mm 0.00 in0.0 mm
02:20 PM 64.0°F17.8°C 55.2°F12.9°C 73% Calm Calm 4.6 mph7.4 kmh 30.33 in1027.1 mb 0.00 in0.0 mm 0.00 in0.0 mm 0.00 in0.0 mm
02:25 PM 63.9°F17.7°C 55.0°F12.8°C 73% 3.5 mph SW5.6 kmh SW 4.6 mph7.4 kmh 30.33 in1027.1 mb 0.00 in0.0 mm 0.00 in0.0 mm 0.00 in0.0 mm
02:30 PM 63.9°F17.7°C 55.0°F12.8°C 73% 2.7 mph WSW4.3 kmh WSW 3.5 mph5.6 kmh 30.33 in1027.1 mb 0.00 in0.0 mm 0.00 in0.0 mm 0.00 in0.0 mm
02:35 PM 64.0°F17.8°C 55.2°F12.9°C 73% 3.8 mph WNW6.1 kmh WNW 3.8 mph6.1 kmh 30.33 in1027.1 mb 0.00 in0.0 mm 0.00 in0.0 mm 0.00 in0.0 mm
02:40 PM 63.9°F17.7°C 55.0°F12.8°C 73% 4.9 mph WSW7.9 kmh WSW 4.9 mph7.9 kmh 30.33 in1027.1 mb 0.00 in0.0 mm 0.00 in0.0 mm 0.00 in0.0 mm
02:45 PM 63.9°F17.7°C 55.0°F12.8°C 73% 3.0 mph SW4.8 kmh SW 4.9 mph7.9 kmh 30.33 in1027.1 mb 0.00 in0.0 mm 0.00 in0.0 mm 0.00 in0.0 mm
02:50 PM 63.9°F17.7°C 55.0°F12.8°C 73% 1.6 mph S2.6 kmh S 5.7 mph9.2 kmh 30.33 in1027.1 mb 0.00 in0.0 mm 0.00 in0.0 mm 0.00 in0.0 mm
02:55 PM 63.9°F17.7°C 54.7°F12.6°C 72% 1.4 mph SSW2.3 kmh SSW 5.7 mph9.2 kmh 30.33 in1027.1 mb 0.00 in0.0 mm 0.00 in0.0 mm 0.00 in0.0 mm
03:00 PM 63.7°F17.6°C 54.5°F12.5°C 72% 4.4 mph W7.1 kmh W 6.0 mph9.7 kmh 30.33 in1027.1 mb 0.00 in0.0 mm 0.00 in0.0 mm 0.00 in0.0 mm
03:05 PM 63.7°F17.6°C 54.5°F12.5°C 72% 1.6 mph NW2.6 kmh NW 6.0 mph9.7 kmh 30.33 in1027.1 mb 0.00 in0.0 mm 0.00 in0.0 mm 0.00 in0.0 mm
03:10 PM 63.7°F17.6°C 54.5°F12.5°C 72% 3.3 mph W5.3 kmh W 5.7 mph9.2 kmh 30.33 in1027.1 mb 0.00 in0.0 mm 0.00 in0.0 mm 0.00 in0.0 mm
03:15 PM 63.5°F17.5°C 54.3°F12.4°C 72% 1.9 mph W3.1 kmh W 3.8 mph6.1 kmh 30.33 in1027.1 mb 0.00 in0.0 mm 0.00 in0.0 mm 0.00 in0.0 mm
03:20 PM 63.3°F17.4°C 53.8°F12.1°C 71% 3.5 mph WSW5.6 kmh WSW 7.6 mph12.2 kmh 30.33 in1027.1 mb 0.00 in0.0 mm 0.00 in0.0 mm 0.00 in0.0 mm
03:25 PM 63.3°F17.4°C 53.8°F12.1°C 71% 1.4 mph WSW2.3 kmh WSW 7.6 mph12.2 kmh 30.33 in1027.1 mb 0.00 in0.0 mm 0.00 in0.0 mm 0.00 in0.0 mm
03:30 PM 63.1°F17.3°C 53.6°F12.0°C 71% 4.1 mph NW6.6 kmh NW 4.4 mph7.1 kmh 30.33 in1027.1 mb 0.00 in0.0 mm 0.00 in0.0 mm 0.00 in0.0 mm
03:35 PM 63.1°F17.3°C 53.6°F12.0°C 71% 3.8 mph W6.1 kmh W 6.5 mph10.5 kmh 30.33 in1027.1 mb 0.00 in0.0 mm 0.00 in0.0 mm 0.00 in0.0 mm
03:40 PM 62.8°F17.1°C 53.2°F11.8°C 71% 1.4 mph SW2.3 kmh SW 6.5 mph10.5 kmh 30.33 in1027.1 mb 0.00 in0.0 mm 0.00 in0.0 mm 0.00 in0.0 mm
03:45 PM 62.6°F17.0°C 53.1°F11.7°C 71% 1.9 mph SW3.1 kmh SW 4.1 mph6.6 kmh 30.33 in1027.1 mb 0.00 in0.0 mm 0.00 in0.0 mm 0.00 in0.0 mm
03:50 PM 62.2°F16.8°C 52.7°F11.5°C 71% 1.6 mph SW2.6 kmh SW 3.5 mph5.6 kmh 30.33 in1027.1 mb 0.00 in0.0 mm 0.00 in0.0 mm 0.00 in0.0 mm
03:55 PM 61.9°F16.6°C 52.4°F11.3°C 71% 1.6 mph SSW2.6 kmh SSW 4.6 mph7.4 kmh 30.33 in1027.1 mb 0.00 in0.0 mm 0.00 in0.0 mm 0.00 in0.0 mm
04:00 PM 61.7°F16.5°C 52.6°F11.4°C 72% 1.6 mph SW2.6 kmh SW 4.6 mph7.4 kmh 30.30 in1026.1 mb 0.00 in0.0 mm 0.00 in0.0 mm 0.00 in0.0 mm
04:05 PM 61.3°F16.3°C 52.2°F11.2°C 72% 1.6 mph SW2.6 kmh SW 3.8 mph6.1 kmh 30.30 in1026.1 mb 0.00 in0.0 mm 0.00 in0.0 mm 0.00 in0.0 mm
04:10 PM 61.0°F16.1°C 51.9°F11.1°C 72% 2.5 mph SW4.0 kmh SW 3.8 mph6.1 kmh 30.30 in1026.1 mb 0.00 in0.0 mm 0.00 in0.0 mm 0.00 in0.0 mm
04:15 PM 60.6°F15.9°C 51.5°F10.8°C 72% Calm Calm 3.5 mph5.6 kmh 30.30 in1026.1 mb 0.00 in0.0 mm 0.00 in0.0 mm 0.00 in0.0 mm
04:20 PM 60.4°F15.8°C 51.7°F10.9°C 73% 1.4 mph SSW2.3 kmh SSW 3.3 mph5.3 kmh 30.30 in1026.1 mb 0.00 in0.0 mm 0.00 in0.0 mm 0.00 in0.0 mm
04:25 PM 60.1°F15.6°C 51.4°F10.8°C 73% Calm Calm 2.5 mph4.0 kmh 30.30 in1026.1 mb 0.00 in0.0 mm 0.00 in0.0 mm 0.00 in0.0 mm
04:30 PM 59.9°F15.5°C 51.2°F10.7°C 73% 4.9 mph NW7.9 kmh NW 4.9 mph7.9 kmh 30.30 in1026.1 mb 0.00 in0.0 mm 0.00 in0.0 mm 0.00 in0.0 mm
04:35 PM 59.7°F15.4°C 51.0°F10.6°C 73% 5.2 mph NNW8.4 kmh NNW 5.2 mph8.4 kmh 30.30 in1026.1 mb 0.00 in0.0 mm 0.00 in0.0 mm 0.00 in0.0 mm
04:40 PM 59.4°F15.2°C 50.3°F10.2°C 72% 3.8 mph NNW6.1 kmh NNW 5.2 mph8.4 kmh 30.30 in1026.1 mb 0.00 in0.0 mm 0.00 in0.0 mm 0.00 in0.0 mm
04:45 PM 59.0°F15.0°C 50.0°F10.0°C 72% 3.3 mph NW5.3 kmh NW 6.0 mph9.7 kmh 30.30 in1026.1 mb 0.00 in0.0 mm 0.00 in0.0 mm 0.00 in0.0 mm
04:50 PM 58.6°F14.8°C 49.6°F9.8°C 72% 3.3 mph NW5.3 kmh NW 6.0 mph9.7 kmh 30.30 in1026.1 mb 0.00 in0.0 mm 0.00 in0.0 mm 0.00 in0.0 mm
04:55 PM 58.5°F14.7°C 49.5°F9.7°C 72% 1.9 mph N3.1 kmh N 4.6 mph7.4 kmh 30.30 in1026.1 mb 0.00 in0.0 mm 0.00 in0.0 mm 0.00 in0.0 mm
05:00 PM 58.1°F14.5°C 49.1°F9.5°C 72% 1.6 mph N2.6 kmh N 4.6 mph7.4 kmh 30.30 in1026.1 mb 0.00 in0.0 mm 0.00 in0.0 mm 0.00 in0.0 mm
05:05 PM 57.9°F14.4°C 48.9°F9.4°C 72% 3.8 mph NNE6.1 kmh NNE 4.1 mph6.6 kmh 30.30 in1026.1 mb 0.00 in0.0 mm 0.00 in0.0 mm 0.00 in0.0 mm
05:10 PM 57.6°F14.2°C 48.6°F9.2°C 72% 3.8 mph N6.1 kmh N 4.6 mph7.4 kmh 30.30 in1026.1 mb 0.00 in0.0 mm 0.00 in0.0 mm 0.00 in0.0 mm
05:15 PM 57.2°F14.0°C 48.3°F9.1°C 72% 4.6 mph NNW7.4 kmh NNW 4.6 mph7.4 kmh 30.30 in1026.1 mb 0.00 in0.0 mm 0.00 in0.0 mm 0.00 in0.0 mm
05:20 PM 57.0°F13.9°C 48.4°F9.1°C 73% 3.3 mph NW5.3 kmh NW 4.6 mph7.4 kmh 30.30 in1026.1 mb 0.00 in0.0 mm 0.00 in0.0 mm 0.00 in0.0 mm
05:25 PM 56.8°F13.8°C 48.3°F9.1°C 73% 4.9 mph NW7.9 kmh NW 6.8 mph10.9 kmh 30.30 in1026.1 mb 0.00 in0.0 mm 0.00 in0.0 mm 0.00 in0.0 mm
05:30 PM 56.5°F13.6°C 47.9°F8.8°C 73% 4.6 mph NW7.4 kmh NW 6.8 mph10.9 kmh 30.30 in1026.1 mb 0.00 in0.0 mm 0.00 in0.0 mm 0.00 in0.0 mm
05:35 PM 56.3°F13.5°C 47.8°F8.8°C 73% 6.0 mph N9.7 kmh N 6.0 mph9.7 kmh 30.30 in1026.1 mb 0.00 in0.0 mm 0.00 in0.0 mm 0.00 in0.0 mm
05:40 PM 55.9°F13.3°C 47.8°F8.8°C 74% 3.0 mph N4.8 kmh N 6.0 mph9.7 kmh 30.30 in1026.1 mb 0.00 in0.0 mm 0.00 in0.0 mm 0.00 in0.0 mm
05:45 PM 55.8°F13.2°C 47.6°F8.7°C 74% 3.3 mph N5.3 kmh N 4.4 mph7.1 kmh 30.30 in1026.1 mb 0.00 in0.0 mm 0.00 in0.0 mm 0.00 in0.0 mm
05:50 PM 55.4°F13.0°C 47.2°F8.4°C 74% 3.0 mph NE4.8 kmh NE 3.5 mph5.6 kmh 30.30 in1026.1 mb 0.00 in0.0 mm 0.00 in0.0 mm 0.00 in0.0 mm
05:55 PM 55.2°F12.9°C 47.4°F8.6°C 75% 3.3 mph N5.3 kmh N 3.5 mph5.6 kmh 30.30 in1026.1 mb 0.00 in0.0 mm 0.00 in0.0 mm 0.00 in0.0 mm
06:00 PM 54.9°F12.7°C 47.1°F8.4°C 75% 1.6 mph NW2.6 kmh NW 4.1 mph6.6 kmh 30.30 in1026.1 mb 0.00 in0.0 mm 0.00 in0.0 mm 0.00 in0.0 mm
06:05 PM 54.7°F12.6°C 47.3°F8.5°C 76% 3.0 mph NW4.8 kmh NW 4.1 mph6.6 kmh 30.30 in1026.1 mb 0.00 in0.0 mm 0.00 in0.0 mm 0.00 in0.0 mm
06:10 PM 54.5°F12.5°C 47.1°F8.4°C 76% 3.0 mph NNW4.8 kmh NNW 3.8 mph6.1 kmh 30.30 in1026.1 mb 0.00 in0.0 mm 0.00 in0.0 mm 0.00 in0.0 mm
06:15 PM 54.5°F12.5°C 47.1°F8.4°C 76% 4.6 mph NNW7.4 kmh NNW 4.6 mph7.4 kmh 30.30 in1026.1 mb 0.00 in0.0 mm 0.00 in0.0 mm 0.00 in0.0 mm
06:20 PM 54.3°F12.4°C 46.9°F8.3°C 76% 1.6 mph NW2.6 kmh NW 4.6 mph7.4 kmh 30.30 in1026.1 mb 0.00 in0.0 mm 0.00 in0.0 mm 0.00 in0.0 mm
06:25 PM 54.1°F12.3°C 46.7°F8.2°C 76% 1.6 mph NW2.6 kmh NW 4.6 mph7.4 kmh 30.30 in1026.1 mb 0.00 in0.0 mm 0.00 in0.0 mm 0.00 in0.0 mm
06:30 PM 53.8°F12.1°C 46.4°F8.0°C 76% 1.4 mph NW2.3 kmh NW 4.6 mph7.4 kmh 30.30 in1026.1 mb 0.00 in0.0 mm 0.00 in0.0 mm 0.00 in0.0 mm
06:35 PM 53.6°F12.0°C 46.6°F8.1°C 77% Calm Calm 3.0 mph4.8 kmh 30.30 in1026.1 mb 0.00 in0.0 mm 0.00 in0.0 mm 0.00 in0.0 mm
06:40 PM 53.4°F11.9°C 46.4°F8.0°C 77% 1.6 mph N2.6 kmh N 3.5 mph5.6 kmh 30.30 in1026.1 mb 0.00 in0.0 mm 0.00 in0.0 mm 0.00 in0.0 mm
06:45 PM 53.4°F11.9°C 46.4°F8.0°C 77% 3.3 mph N5.3 kmh N 3.5 mph5.6 kmh 30.30 in1026.1 mb 0.00 in0.0 mm 0.00 in0.0 mm 0.00 in0.0 mm
06:50 PM 53.2°F11.8°C 46.2°F7.9°C 77% 1.6 mph NW2.6 kmh NW 4.1 mph6.6 kmh 30.30 in1026.1 mb 0.00 in0.0 mm 0.00 in0.0 mm 0.00 in0.0 mm
06:55 PM 53.2°F11.8°C 46.2°F7.9°C 77% 1.1 mph NNE1.8 kmh NNE 4.1 mph6.6 kmh 30.30 in1026.1 mb 0.00 in0.0 mm 0.00 in0.0 mm 0.00 in0.0 mm
07:00 PM 53.1°F11.7°C 46.4°F8.0°C 78% 1.6 mph NNE2.6 kmh NNE 3.0 mph4.8 kmh 30.30 in1026.1 mb 0.00 in0.0 mm 0.00 in0.0 mm 0.00 in0.0 mm
07:05 PM 53.1°F11.7°C 46.4°F8.0°C 78% 4.1 mph NW6.6 kmh NW 4.6 mph7.4 kmh 30.30 in1026.1 mb 0.00 in0.0 mm 0.00 in0.0 mm 0.00 in0.0 mm
07:10 PM 52.9°F11.6°C 46.2°F7.9°C 78% 4.1 mph NW6.6 kmh NW 5.2 mph8.4 kmh 30.30 in1026.1 mb 0.00 in0.0 mm 0.00 in0.0 mm 0.00 in0.0 mm
07:15 PM 52.7°F11.5°C 46.0°F7.8°C 78% 1.9 mph NW3.1 kmh NW 5.2 mph8.4 kmh 30.30 in1026.1 mb 0.00 in0.0 mm 0.00 in0.0 mm 0.00 in0.0 mm
07:20 PM 52.5°F11.4°C 46.2°F7.9°C 79% 1.6 mph NW2.6 kmh NW 3.5 mph5.6 kmh 30.30 in1026.1 mb 0.00 in0.0 mm 0.00 in0.0 mm 0.00 in0.0 mm
07:25 PM 52.5°F11.4°C 46.2°F7.9°C 79% Calm Calm 3.3 mph5.3 kmh 30.30 in1026.1 mb 0.00 in0.0 mm 0.00 in0.0 mm 0.00 in0.0 mm
07:30 PM 52.3°F11.3°C 46.0°F7.8°C 79% 1.1 mph NW1.8 kmh NW 3.0 mph4.8 kmh 30.30 in1026.1 mb 0.00 in0.0 mm 0.00 in0.0 mm 0.00 in0.0 mm
07:35 PM 52.3°F11.3°C 46.0°F7.8°C 79% Calm Calm 3.3 mph5.3 kmh 30.30 in1026.1 mb 0.00 in0.0 mm 0.00 in0.0 mm 0.00 in0.0 mm
07:40 PM 52.2°F11.2°C 45.8°F7.7°C 79% 3.0 mph SW4.8 kmh SW 3.3 mph5.3 kmh 30.30 in1026.1 mb 0.00 in0.0 mm 0.00 in0.0 mm 0.00 in0.0 mm
07:45 PM 52.0°F11.1°C 45.7°F7.6°C 79% 4.1 mph WNW6.6 kmh WNW 4.1 mph6.6 kmh 30.30 in1026.1 mb 0.00 in0.0 mm 0.00 in0.0 mm 0.00 in0.0 mm
07:50 PM 51.8°F11.0°C 45.5°F7.5°C 79% Calm Calm 4.1 mph6.6 kmh 30.30 in1026.1 mb 0.00 in0.0 mm 0.00 in0.0 mm 0.00 in0.0 mm
07:55 PM 51.8°F11.0°C 45.5°F7.5°C 79% 1.1 mph NNE1.8 kmh NNE 3.0 mph4.8 kmh 30.30 in1026.1 mb 0.00 in0.0 mm 0.00 in0.0 mm 0.00 in0.0 mm
08:00 PM 51.8°F11.0°C 45.8°F7.7°C 80% 2.5 mph NNE4.0 kmh NNE 2.7 mph4.3 kmh 30.30 in1026.1 mb 0.00 in0.0 mm 0.00 in0.0 mm 0.00 in0.0 mm
08:05 PM 51.6°F10.9°C 45.7°F7.6°C 80% Calm Calm 3.3 mph5.3 kmh 30.30 in1026.1 mb 0.00 in0.0 mm 0.00 in0.0 mm 0.00 in0.0 mm
08:10 PM 51.6°F10.9°C 45.7°F7.6°C 80% 3.5 mph N5.6 kmh N 3.5 mph5.6 kmh 30.30 in1026.1 mb 0.00 in0.0 mm 0.00 in0.0 mm 0.00 in0.0 mm
08:15 PM 51.4°F10.8°C 45.5°F7.5°C 80% 3.8 mph N6.1 kmh N 3.8 mph6.1 kmh 30.30 in1026.1 mb 0.00 in0.0 mm 0.00 in0.0 mm 0.00 in0.0 mm
08:20 PM 51.4°F10.8°C 45.8°F7.7°C 81% 1.9 mph NW3.1 kmh NW 3.8 mph6.1 kmh 30.30 in1026.1 mb 0.00 in0.0 mm 0.00 in0.0 mm 0.00 in0.0 mm
08:25 PM 51.3°F10.7°C 45.6°F7.6°C 81% 2.5 mph NW4.0 kmh NW 3.8 mph6.1 kmh 30.30 in1026.1 mb 0.00 in0.0 mm 0.00 in0.0 mm 0.00 in0.0 mm
08:30 PM 51.1°F10.6°C 45.5°F7.5°C 81% 3.0 mph NW4.8 kmh NW 3.8 mph6.1 kmh 30.30 in1026.1 mb 0.00 in0.0 mm 0.00 in0.0 mm 0.00 in0.0 mm
08:35 PM 51.1°F10.6°C 45.5°F7.5°C 81% Calm Calm 3.8 mph6.1 kmh 30.30 in1026.1 mb 0.00 in0.0 mm 0.00 in0.0 mm 0.00 in0.0 mm
08:40 PM 50.9°F10.5°C 45.3°F7.4°C 81% 1.1 mph WNW1.8 kmh WNW 3.0 mph4.8 kmh 30.30 in1026.1 mb 0.00 in0.0 mm 0.00 in0.0 mm 0.00 in0.0 mm
08:45 PM 50.9°F10.5°C 45.3°F7.4°C 81% 1.6 mph N2.6 kmh N 2.7 mph4.3 kmh 30.30 in1026.1 mb 0.00 in0.0 mm 0.00 in0.0 mm 0.00 in0.0 mm
08:50 PM 50.7°F10.4°C 45.1°F7.3°C 81% 3.5 mph NNW5.6 kmh NNW 3.8 mph6.1 kmh 30.30 in1026.1 mb 0.00 in0.0 mm 0.00 in0.0 mm 0.00 in0.0 mm
08:55 PM 50.7°F10.4°C 45.1°F7.3°C 81% 4.4 mph NW7.1 kmh NW 4.9 mph7.9 kmh 30.30 in1026.1 mb 0.00 in0.0 mm 0.00 in0.0 mm 0.00 in0.0 mm
09:00 PM 50.5°F10.3°C 45.2°F7.3°C 82% Calm Calm 4.9 mph7.9 kmh 30.30 in1026.1 mb 0.00 in0.0 mm 0.00 in0.0 mm 0.00 in0.0 mm
09:05 PM 50.4°F10.2°C 44.7°F7.1°C 81% 1.4 mph N2.3 kmh N 3.5 mph5.6 kmh 30.30 in1026.1 mb 0.00 in0.0 mm 0.00 in0.0 mm 0.00 in0.0 mm
09:10 PM 50.4°F10.2°C 45.1°F7.3°C 82% 1.9 mph N3.1 kmh N 4.6 mph7.4 kmh 30.30 in1026.1 mb 0.00 in0.0 mm 0.00 in0.0 mm 0.00 in0.0 mm
09:15 PM 50.4°F10.2°C 45.1°F7.3°C 82% 4.1 mph NW6.6 kmh NW 4.6 mph7.4 kmh 30.30 in1026.1 mb 0.00 in0.0 mm 0.00 in0.0 mm 0.00 in0.0 mm
09:20 PM 50.4°F10.2°C 45.1°F7.3°C 82% 3.5 mph NW5.6 kmh NW 6.8 mph10.9 kmh 30.30 in1026.1 mb 0.00 in0.0 mm 0.00 in0.0 mm 0.00 in0.0 mm
09:25 PM 50.2°F10.1°C 44.9°F7.2°C 82% 4.4 mph NW7.1 kmh NW 6.8 mph10.9 kmh 30.30 in1026.1 mb 0.00 in0.0 mm 0.00 in0.0 mm 0.00 in0.0 mm
09:30 PM 50.2°F10.1°C 44.9°F7.2°C 82% 3.3 mph NW5.3 kmh NW 5.7 mph9.2 kmh 30.30 in1026.1 mb 0.00 in0.0 mm 0.00 in0.0 mm 0.00 in0.0 mm
09:35 PM 50.0°F10.0°C 44.7°F7.1°C 82% 2.7 mph NW4.3 kmh NW 4.9 mph7.9 kmh 30.30 in1026.1 mb 0.00 in0.0 mm 0.00 in0.0 mm 0.00 in0.0 mm
09:40 PM 49.8°F9.9°C 44.9°F7.2°C 83% 4.6 mph NW7.4 kmh NW 5.2 mph8.4 kmh 30.30 in1026.1 mb 0.00 in0.0 mm 0.00 in0.0 mm 0.00 in0.0 mm
09:45 PM 49.8°F9.9°C 44.9°F7.2°C 83% 4.4 mph NW7.1 kmh NW 7.9 mph12.7 kmh 30.30 in1026.1 mb 0.00 in0.0 mm 0.00 in0.0 mm 0.00 in0.0 mm
09:50 PM 49.8°F9.9°C 44.9°F7.2°C 83% 4.6 mph NW7.4 kmh NW 7.9 mph12.7 kmh 30.30 in1026.1 mb 0.00 in0.0 mm 0.00 in0.0 mm 0.00 in0.0 mm
09:55 PM 49.8°F9.9°C 44.9°F7.2°C 83% 5.2 mph NNW8.4 kmh NNW 7.1 mph11.4 kmh 30.30 in1026.1 mb 0.00 in0.0 mm 0.00 in0.0 mm 0.00 in0.0 mm
10:00 PM 49.6°F9.8°C 45.0°F7.2°C 84% 2.5 mph NW4.0 kmh NW 5.7 mph9.2 kmh 30.30 in1026.1 mb 0.00 in0.0 mm 0.00 in0.0 mm 0.00 in0.0 mm
10:05 PM 49.5°F9.7°C 44.8°F7.1°C 84% 1.6 mph NW2.6 kmh NW 4.6 mph7.4 kmh 30.30 in1026.1 mb 0.00 in0.0 mm 0.00 in0.0 mm 0.00 in0.0 mm
10:10 PM 49.3°F9.6°C 44.6°F7.0°C 84% 4.4 mph NW7.1 kmh NW 4.4 mph7.1 kmh 30.30 in1026.1 mb 0.00 in0.0 mm 0.00 in0.0 mm 0.00 in0.0 mm
10:15 PM 49.1°F9.5°C 44.5°F6.9°C 84% 2.7 mph NW4.3 kmh NW 5.2 mph8.4 kmh 30.30 in1026.1 mb 0.00 in0.0 mm 0.00 in0.0 mm 0.00 in0.0 mm
10:20 PM 49.1°F9.5°C 44.5°F6.9°C 84% 4.9 mph NW7.9 kmh NW 5.2 mph8.4 kmh 30.30 in1026.1 mb 0.00 in0.0 mm 0.00 in0.0 mm 0.00 in0.0 mm
10:25 PM 48.9°F9.4°C 44.3°F6.8°C 84% 3.8 mph NW6.1 kmh NW 6.8 mph10.9 kmh 30.30 in1026.1 mb 0.00 in0.0 mm 0.00 in0.0 mm 0.00 in0.0 mm
10:30 PM 48.7°F9.3°C 44.1°F6.7°C 84% 3.3 mph NW5.3 kmh NW 6.8 mph10.9 kmh 30.30 in1026.1 mb 0.00 in0.0 mm 0.00 in0.0 mm 0.00 in0.0 mm
10:35 PM 48.7°F9.3°C 44.1°F6.7°C 84% 1.4 mph NW2.3 kmh NW 4.9 mph7.9 kmh 30.30 in1026.1 mb 0.00 in0.0 mm 0.00 in0.0 mm 0.00 in0.0 mm
10:40 PM 48.4°F9.1°C 43.8°F6.6°C 84% 4.1 mph NNW6.6 kmh NNW 4.1 mph6.6 kmh 30.30 in1026.1 mb 0.00 in0.0 mm 0.00 in0.0 mm 0.00 in0.0 mm
10:45 PM 48.4°F9.1°C 43.8°F6.6°C 84% 5.2 mph NNW8.4 kmh NNW 5.7 mph9.2 kmh 30.30 in1026.1 mb 0.00 in0.0 mm 0.00 in0.0 mm 0.00 in0.0 mm
10:50 PM 48.4°F9.1°C 43.8°F6.6°C 84% 7.6 mph N12.2 kmh N 7.6 mph12.2 kmh 30.30 in1026.1 mb 0.00 in0.0 mm 0.00 in0.0 mm 0.00 in0.0 mm
10:55 PM 48.4°F9.1°C 43.8°F6.6°C 84% 4.1 mph NNW6.6 kmh NNW 7.6 mph12.2 kmh 30.30 in1026.1 mb 0.00 in0.0 mm 0.00 in0.0 mm 0.00 in0.0 mm
11:00 PM 48.2°F9.0°C 43.6°F6.4°C 84% 3.3 mph NW5.3 kmh NW 6.0 mph9.7 kmh 30.30 in1026.1 mb 0.00 in0.0 mm 0.00 in0.0 mm 0.00 in0.0 mm
11:05 PM 48.0°F8.9°C 43.7°F6.5°C 85% 5.2 mph WNW8.4 kmh WNW 5.2 mph8.4 kmh 30.30 in1026.1 mb 0.00 in0.0 mm 0.00 in0.0 mm 0.00 in0.0 mm
11:10 PM 48.0°F8.9°C 43.7°F6.5°C 85% 1.6 mph NW2.6 kmh NW 5.2 mph8.4 kmh 30.30 in1026.1 mb 0.00 in0.0 mm 0.00 in0.0 mm 0.00 in0.0 mm
11:15 PM 47.7°F8.7°C 43.4°F6.3°C 85% 1.6 mph NW2.6 kmh NW 5.2 mph8.4 kmh 30.30 in1026.1 mb 0.00 in0.0 mm 0.00 in0.0 mm 0.00 in0.0 mm
11:20 PM 47.5°F8.6°C 43.2°F6.2°C 85% 3.8 mph NW6.1 kmh NW 4.4 mph7.1 kmh 30.30 in1026.1 mb 0.00 in0.0 mm 0.00 in0.0 mm 0.00 in0.0 mm
11:25 PM 47.3°F8.5°C 43.0°F6.1°C 85% 2.7 mph NW4.3 kmh NW 4.4 mph7.1 kmh 30.30 in1026.1 mb 0.00 in0.0 mm 0.00 in0.0 mm 0.00 in0.0 mm
11:30 PM 47.3°F8.5°C 43.0°F6.1°C 85% Calm Calm 3.3 mph5.3 kmh 30.27 in1025.1 mb 0.00 in0.0 mm 0.00 in0.0 mm 0.00 in0.0 mm
11:35 PM 47.3°F8.5°C 43.0°F6.1°C 85% 2.7 mph WNW4.3 kmh WNW 2.7 mph4.3 kmh 30.27 in1025.1 mb 0.00 in0.0 mm 0.00 in0.0 mm 0.00 in0.0 mm
11:40 PM 47.1°F8.4°C 42.8°F6.0°C 85% Calm Calm 3.3 mph5.3 kmh 30.27 in1025.1 mb 0.00 in0.0 mm 0.00 in0.0 mm 0.00 in0.0 mm
11:45 PM 46.9°F8.3°C 42.7°F5.9°C 85% 1.6 mph NW2.6 kmh NW 3.3 mph5.3 kmh 30.27 in1025.1 mb 0.00 in0.0 mm 0.00 in0.0 mm 0.00 in0.0 mm
11:50 PM 46.8°F8.2°C 42.5°F5.8°C 85% 1.4 mph NNW2.3 kmh NNW 2.7 mph4.3 kmh 30.27 in1025.1 mb 0.00 in0.0 mm 0.00 in0.0 mm 0.00 in0.0 mm
11:55 PM 46.8°F8.2°C 42.5°F5.8°C 85% Calm Calm 2.7 mph4.3 kmh 30.27 in1025.1 mb 0.00 in0.0 mm 0.00 in0.0 mm 0.00 in0.0 mm